Delta Virtual Airport Information Service

Cali Alfonso Bonilla Aragon International Airport

ICAO: SKCL Country: Colombia
Latitude: 3.54306 Longitude: -76.3816
Latest Arrival : DAC6936 (KLRD-SKCL) Latest Departure : DAC6936 (SKCL-KOKC)


WX CaptureLIVE
Data provided by noaa.gov | Fetched at 11:51:55

METAR : SKCL 151600Z VRB03KT 9999 SCT015 SCT090 22/20 Q1021 NOSIG RMK A3015

TAF : SKCL 151030Z 1512/1612 VRB02KT 5000 DZ BR BKN015 BKN070 BECMG 1514/1515 9999 NSW TEMPO 1523/1602 DZ BECMG 1609/1610 4000 BR BKN007 TX28/1520Z TN19/1610Z


Runway Data for SKCL
Data provided by openaviationdata.com

Runway ID Mag Var Hdg Length Elevation Surface ILS Freq ILS Id ILS Slope
1 -3 12° 9890 ft 3155 ft Concrete 109.9 IPAS 3
19 -3 192° 9890 ft 3155 ft Concrete -- -- --

Cali Alfonso Bonilla Aragon International Airport, Colombia
Use only for reference purposes



Not for navigational purposes.